Latest Weather Observations for Temora

IDN60801

Issued at 3:05 pm EDT Saturday 7 March 2015 (issued every 30 minutes, with the page automatically refreshed every 10 minutes)

About weather observations | Map of weather stations | Latest weather observations for NSW | Other Formats
Station Details ID: 073151 Name: TEMORA AIRPORT Lat: -34.43 Lon: 147.51 Height: 280.5 m
Data from the previous 72 hours. | See also: Recent months at Temora
Date/Time
EDT
Temp
°C
App
Temp
°C
Dew
Point
Rel
Hum
%
Delta-T
°C
Wind Press
QNH
hPa
Press
MSL
hPa
Rain
since 9 am
mm
Dir
 
Spd
km/h
Gust
km/h
Spd
kts
Gust
kts
07/03:00pm 25.6 23.0 9.4 36 9.0 SW 13 20 7 11 1011.0 1010.0 0.0
07/02:30pm 24.9 20.9 9.2 37 8.6 SW 20 28 11 15 1011.8 1010.7 0.0
07/02:00pm 25.0 21.1 9.3 37 8.7 SSW 20 30 11 16 1011.8 1010.7 0.0
07/01:30pm 25.1 21.5 9.8 38 8.5 SW 19 30 10 16 1012.1 1011.0 0.0
07/01:00pm 25.0 21.8 10.1 39 8.3 WNW 17 26 9 14 1012.7 1011.6 0.0
07/12:30pm 24.4 22.0 9.9 40 8.1 W 13 26 7 14 1012.9 1011.9 0.0
07/12:00pm 23.3 20.7 10.7 45 7.1 SW 15 22 8 12 1013.3 1012.3 0.0
07/11:30am 23.7 21.9 10.7 44 7.3 SW 11 20 6 11 1013.4 1012.4 0.0
07/11:00am 22.2 21.0 10.4 47 6.5 SSW 7 17 4 9 1013.7 1012.7 0.0
07/10:30am 21.4 20.4 10.9 51 5.8 WSW 7 15 4 8 1013.7 1012.7 0.0
07/10:00am 21.0 19.9 10.8 52 5.7 ESE 7 11 4 6 1013.8 1012.8 0.0
07/09:30am 20.1 19.9 10.5 54 5.3 SE 2 7 1 4 1013.8 1012.8 0.0
07/09:00am 17.4 17.0 9.8 61 4.1 E 2 7 1 4 1013.7 1012.7 0.0
07/08:30am 14.6 14.6 9.8 73 2.5 CALM 0 0 0 0 1014.0 1013.0 0.0
07/08:00am 12.1 12.0 9.3 83 1.4 CALM 0 2 0 1 1013.8 1012.8 0.0
07/07:30am 9.6 9.0 7.5 87 1.0 CALM 0 0 0 0 1013.3 1012.3 0.0
07/07:00am 10.1 9.6 7.9 86 1.1 CALM 0 0 0 0 1012.6 1011.5 0.0
07/06:30am 10.8 9.3 8.4 85 1.2 E 6 9 3 5 1012.5 1011.4 0.0
07/06:00am 9.4 8.7 7.0 85 1.1 CALM 0 0 0 0 1012.2 1011.1 0.0
07/05:30am 10.5 9.9 7.2 80 1.6 CALM 0 0 0 0 1011.8 1010.7 0.0
07/05:00am 10.6 8.9 7.7 82 1.4 SSW 6 9 3 5 1011.5 1010.4 0.0
07/04:30am 12.2 10.3 9.0 81 1.6 S 9 11 5 6 1011.4 1010.3 0.0
07/04:00am 11.7 11.0 8.4 80 1.7 SSW 2 7 1 4 1011.5 1010.4 0.0
07/03:30am 11.3 10.9 8.2 81 1.5 CALM 0 0 0 0 1011.6 1010.5 0.0
07/03:00am 11.7 11.2 8.0 78 1.8 CALM 0 0 0 0 1011.5 1010.4 0.0
07/02:30am 12.0 10.5 8.5 79 1.8 SW 6 11 3 6 1011.5 1010.4 0.0
07/02:00am 12.8 11.0 8.1 73 2.4 SSE 7 9 4 5 1011.7 1010.6 0.0
07/01:30am 12.5 10.0 8.2 75 2.2 S 11 13 6 7 1012.0 1010.9 0.0
07/01:00am 12.7 11.5 8.2 74 2.3 SSW 4 9 2 5 1012.3 1011.2 0.0
07/12:30am 12.3 10.4 7.4 72 2.4 SSW 7 9 4 5 1012.2 1011.1 0.0
07/12:00am 14.0 12.3 8.4 69 2.8 S 7 9 4 5 1012.2 1011.1 0.0
 
Date/Time
EDT
Temp
°C
App
Temp
°C
Dew
Point
Rel
Hum
%
Delta-T
°C
Wind Press
QNH
hPa
Press
MSL
hPa
Rain
since 9 am
mm
Dir
 
Spd
km/h
Gust
km/h
Spd
kts
Gust
kts
06/11:30pm 14.8 14.0 8.3 65 3.3 SW 2 7 1 4 1012.3 1011.2 0.0
06/11:00pm 15.3 13.8 8.3 63 3.6 SSW 6 9 3 5 1012.5 1011.4 0.0
06/10:30pm 15.2 13.0 8.0 62 3.7 SSW 9 13 5 7 1012.5 1011.4 0.0
06/10:00pm 16.9 14.8 8.3 57 4.4 SW 9 11 5 6 1012.5 1011.4 0.0
06/09:30pm 16.5 14.3 7.7 56 4.5 WSW 9 13 5 7 1012.3 1011.2 0.0
06/09:00pm 18.1 16.3 8.1 52 5.2 SW 7 11 4 6 1012.1 1011.0 0.0
06/08:30pm 19.2 16.3 8.2 49 5.8 SSW 13 17 7 9 1011.8 1010.7 0.0
06/08:00pm 20.4 16.4 8.4 46 6.4 SSW 19 26 10 14 1011.4 1010.3 0.0
06/07:30pm 21.2 16.7 8.5 44 6.8 SSW 22 33 12 18 1011.1 1010.0 0.0
06/07:00pm 21.5 16.6 8.4 43 7.0 SW 24 39 13 21 1010.7 1009.7 0.0
06/06:30pm 21.9 16.6 8.4 42 7.2 SSW 26 37 14 20 1010.5 1009.5 0.0
06/06:00pm 22.1 16.3 7.9 40 7.5 SSW 28 37 15 20 1010.3 1009.3 0.0
06/05:30pm 23.2 17.7 7.7 37 8.2 SW 26 41 14 22 1010.1 1009.1 0.0
06/05:00pm 23.5 17.2 7.6 36 8.5 SW 30 46 16 25 1009.9 1008.9 0.0
06/04:45pm 24.1 18.2 7.7 35 8.8 SW 28 46 15 25 1010.0 1009.0 0.0
06/04:30pm 23.9 18.0 7.5 35 8.7 WSW 28 43 15 23 1010.0 1009.0 0.0
06/04:00pm 23.3 16.9 7.0 35 8.6 WSW 30 46 16 25 1010.3 1009.3 0.0
06/03:30pm 23.2 17.5 6.5 34 8.7 WSW 26 37 14 20 1010.7 1009.7 0.0
06/03:00pm 22.8 17.3 5.7 33 8.7 SW 24 43 13 23 1011.3 1010.2 0.0
06/02:37pm 22.4 16.0 5.4 33 8.6 WSW 28 50 15 27 1011.7 1010.6 0.0
06/02:30pm 22.0 15.2 5.0 33 8.5 WSW 30 41 16 22 1011.8 1010.7 0.0
06/02:00pm 21.2 15.0 4.3 33 8.3 WSW 26 44 14 24 1012.1 1011.0 0.0
06/01:30pm 21.0 14.3 3.7 32 8.4 WSW 28 39 15 21 1012.0 1010.9 0.0
06/01:00pm 20.5 14.2 3.7 33 8.1 WSW 26 39 14 21 1012.3 1011.2 0.0
06/12:30pm 20.6 14.9 5.0 36 7.8 WSW 24 41 13 22 1012.8 1011.7 0.0
06/12:00pm 19.3 13.5 4.3 37 7.3 SW 24 33 13 18 1013.5 1012.5 0.0
06/11:30am 17.9 12.1 4.5 41 6.5 WSW 24 35 13 19 1013.7 1012.7 0.0
06/11:00am 17.6 12.2 4.5 42 6.3 SW 22 32 12 17 1013.5 1012.5 0.0
06/10:30am 16.7 11.0 4.7 45 5.8 SW 24 32 13 17 1013.6 1012.6 0.0
06/10:00am 16.1 10.3 4.2 45 5.6 SW 24 33 13 18 1013.6 1012.6 0.0
06/09:30am 15.5 10.4 3.9 46 5.4 SSW 20 32 11 17 1013.5 1012.5 0.0
06/09:00am 14.7 8.6 2.9 45 5.4 SSW 24 30 13 16 1013.6 1012.6 -
06/08:30am 13.5 9.3 1.8 45 5.1 SSW 13 20 7 11 1013.5 1012.5 -
06/08:00am 10.4 6.8 0.4 50 4.1 SSW 9 13 5 7 1013.1 1012.1 -
06/07:30am 7.4 4.1 0.2 60 2.9 SW 7 9 4 5 1012.6 1011.5 -
06/07:00am 6.3 4.3 0.2 65 2.4 CALM 0 6 0 3 1012.5 1011.4 -
06/06:30am 8.0 4.8 -0.2 56 3.3 SSW 6 7 3 4 1012.6 1011.5 -
06/06:00am 7.9 4.6 -0.1 57 3.2 SSW 7 9 4 5 1012.9 1011.9 -
06/05:30am 7.8 4.6 0.5 60 3.0 S 7 9 4 5 1012.6 1011.5 -
06/05:00am 6.4 3.3 -0.1 63 2.6 SW 6 9 3 5 1012.4 1011.3 -
06/04:30am 8.1 6.1 0.1 57 3.2 CALM 0 0 0 0 1012.8 1011.7 -
06/04:00am 8.6 6.6 -0.2 54 3.5 CALM 0 0 0 0 1012.9 1011.9 -
06/03:30am 9.9 7.5 -0.3 49 4.1 SE 2 6 1 3 1013.0 1012.0 -
06/03:00am 10.7 7.3 -0.7 45 4.6 S 7 9 4 5 1013.2 1012.2 0.0
06/02:30am 11.3 7.5 -0.8 43 4.9 S 9 11 5 6 1013.4 1012.4 -
06/02:00am 12.1 8.2 -1.4 39 5.5 S 9 13 5 7 1013.7 1012.7 -
06/01:30am 12.6 8.3 -1.3 38 5.7 SSW 11 15 6 8 1014.1 1013.1 -
06/01:00am 12.2 8.2 -2.0 37 5.7 SSW 9 11 5 6 1014.3 1013.3 -
06/12:30am 12.2 8.2 -2.4 36 5.8 WSW 9 11 5 6 1014.3 1013.3 -
06/12:00am 13.1 9.5 -2.4 34 6.2 SSW 7 11 4 6 1014.6 1013.6 -
 
Date/Time
EDT
Temp
°C
App
Temp
°C
Dew
Point
Rel
Hum
%
Delta-T
°C
Wind Press
QNH
hPa
Press
MSL
hPa
Rain
since 9 am
mm
Dir
 
Spd
km/h
Gust
km/h
Spd
kts
Gust
kts
05/11:30pm 14.5 10.2 -2.0 32 6.7 SSW 11 17 6 9 1015.0 1013.9 -
05/11:00pm 14.4 10.0 -2.1 32 6.7 SSW 11 13 6 7 1015.3 1014.2 -
05/10:30pm 14.9 10.5 -2.5 30 7.1 SSW 11 17 6 9 1015.3 1014.2 -
05/10:00pm 15.8 10.7 -1.7 30 7.3 SSW 15 22 8 12 1015.3 1014.2 -
05/09:30pm 16.0 11.7 -2.0 29 7.5 SW 11 19 6 10 1015.0 1013.9 -
05/09:00pm 17.0 12.2 -2.6 26 8.1 SSW 13 19 7 10 1014.5 1013.5 -
05/08:30pm 17.3 12.5 -2.4 26 8.2 SSW 13 24 7 13 1014.2 1013.2 -
05/08:00pm 18.5 12.4 -2.4 24 8.8 SW 20 30 11 16 1013.8 1012.8 -
05/07:30pm 19.5 13.4 -2.2 23 9.3 SW 20 32 11 17 1013.3 1012.3 -
05/07:00pm 20.1 13.0 -1.1 24 9.3 WSW 26 35 14 19 1013.2 1012.2 -
05/06:30pm 20.5 12.9 -1.9 22 9.7 SW 28 46 15 25 1012.9 1011.9 -
05/06:00pm 21.6 13.2 -2.3 20 10.4 SW 32 46 17 25 1012.8 1011.7 -
05/05:30pm 22.7 14.8 -4.4 16 11.4 SW 28 43 15 23 1012.5 1011.4 -
05/05:00pm 23.0 14.8 -1.1 20 10.8 SW 32 50 17 27 1012.5 1011.4 -
05/04:33pm 22.2 14.3 -1.8 20 10.6 SW 30 50 16 27 1012.6 1011.5 -
05/04:30pm 22.0 13.8 -0.7 22 10.2 SW 32 46 17 25 1012.6 1011.5 -
05/04:11pm 22.0 13.6 -1.3 21 10.4 SSW 33 52 18 28 1012.9 1011.9 -
05/04:00pm - - - - - SSW 35 46 19 25 - - -
05/03:33pm 22.3 14.4 -1.7 20 10.6 SW 30 56 16 30 1013.4 1012.4 -
05/03:30pm 22.0 14.6 -0.7 22 10.2 SSW 28 41 15 22 1013.4 1012.4 -
05/02:30pm 21.8 13.3 -2.1 20 10.4 SW 33 52 18 28 1013.3 1012.3 0.0
05/02:00pm 21.1 12.1 -2.7 20 10.2 SW 35 56 19 30 1013.5 1012.5 0.0
05/01:30pm 20.3 10.5 -3.4 20 10.0 SW 39 57 21 31 1013.4 1012.4 0.0
05/01:00pm 21.7 12.1 -4.4 17 10.9 WSW 37 56 20 30 1013.5 1012.5 0.0
05/12:30pm 20.4 11.5 -5.4 17 10.4 SW 33 52 18 28 1014.1 1013.1 0.0
05/12:01pm 19.6 10.1 -3.9 20 9.7 WSW 37 56 20 30 1014.5 1013.5 0.0
05/12:00pm 19.6 10.2 -2.7 22 9.4 WSW 37 54 20 29 1014.5 1013.5 0.0
05/11:30am 19.1 10.3 1.1 30 8.2 SW 37 61 20 33 1014.6 1013.6 0.0
05/11:10am 18.5 9.8 1.9 33 7.6 SW 37 57 20 31 1014.7 1013.7 0.0
05/11:00am 18.7 10.5 2.5 34 7.6 SW 35 50 19 27 1014.7 1013.7 0.0
05/10:45am 19.2 11.7 4.6 38 7.1 SW 33 52 18 28 1014.5 1013.5 0.0
05/10:30am 18.3 11.1 5.8 44 6.2 SW 33 46 18 25 1014.4 1013.4 0.0
05/10:00am 18.3 12.5 9.4 56 4.7 SW 30 46 16 25 1013.9 1012.9 0.0
05/09:31am 17.8 11.6 9.2 57 4.6 SW 32 54 17 29 1013.7 1012.7 0.0
05/09:30am 17.6 11.3 9.0 57 4.5 SW 32 48 17 26 1013.7 1012.7 0.0
05/09:00am 17.3 10.6 9.5 60 4.1 SW 35 54 19 29 1013.5 1012.5 0.0
05/08:53am 17.0 10.8 9.2 60 4.1 SW 32 52 17 28 1013.6 1012.6 0.0
05/08:30am 16.6 10.9 9.8 64 3.6 WSW 30 43 16 23 1013.5 1012.5 0.0
05/08:08am 16.0 10.6 9.4 65 3.5 SW 28 46 15 25 1013.2 1012.2 0.0
05/08:00am 15.8 10.7 9.2 65 3.5 WSW 26 39 14 21 1013.1 1012.1 0.0
05/07:30am 15.0 11.1 8.5 65 3.3 WSW 19 24 10 13 1012.4 1011.3 0.0
05/07:00am 15.0 10.5 8.5 65 3.3 WSW 22 33 12 18 1012.0 1010.9 0.0
05/06:30am 15.3 11.2 8.5 64 3.5 WSW 20 32 11 17 1011.5 1010.4 0.0
05/06:00am 15.8 11.6 8.3 61 3.9 WSW 20 32 11 17 1011.4 1010.3 0.0
05/05:30am 16.5 11.5 8.0 57 4.4 SW 24 41 13 22 1011.2 1010.1 0.0
05/05:00am 17.0 12.6 7.4 53 4.9 SW 20 32 11 17 1010.9 1009.9 0.0
05/04:30am 17.5 13.1 6.4 48 5.5 SW 19 28 10 15 1010.9 1009.9 0.0
05/04:00am 18.0 12.5 5.9 45 6.0 SW 24 37 13 20 1010.8 1009.8 0.0
05/03:30am 18.2 13.6 3.7 38 6.9 SW 17 24 9 13 1010.8 1009.8 0.0
05/03:00am 17.1 13.0 2.3 37 6.8 SW 13 17 7 9 1010.7 1009.7 0.0
05/02:30am 16.7 13.6 1.2 35 6.9 SW 7 11 4 6 1010.9 1009.9 0.0
05/02:00am 17.0 14.0 1.0 34 7.1 WSW 6 9 3 5 1011.3 1010.2 0.0
05/01:30am 17.2 14.2 0.8 33 7.3 SW 6 9 3 5 1011.4 1010.3 0.0
05/01:00am 17.7 14.5 0.8 32 7.6 SW 7 9 4 5 1011.6 1010.5 0.0
05/12:30am 18.5 15.3 0.6 30 8.0 WSW 7 11 4 6 1011.5 1010.4 0.0
05/12:00am 19.0 15.3 0.1 28 8.4 WSW 9 13 5 7 1011.6 1010.5 0.0
 
Date/Time
EDT
Temp
°C
App
Temp
°C
Dew
Point
Rel
Hum
%
Delta-T
°C
Wind Press
QNH
hPa
Press
MSL
hPa
Rain
since 9 am
mm
Dir
 
Spd
km/h
Gust
km/h
Spd
kts
Gust
kts
04/11:30pm 18.4 14.3 0.1 29 8.1 WSW 11 15 6 8 1011.7 1010.6 0.0
04/11:00pm 17.5 13.5 0.2 31 7.6 WSW 11 13 6 7 1011.8 1010.7 0.0
04/10:30pm 18.2 15.1 -0.1 29 8.1 W 6 7 3 4 1011.9 1010.8 0.0
04/10:00pm 20.5 16.8 -0.2 25 9.3 WSW 9 11 5 6 1012.0 1010.9 0.0
04/09:30pm 21.3 17.1 -0.6 23 9.8 WSW 11 13 6 7 1012.0 1010.9 0.0
04/09:00pm 22.1 17.9 -0.6 22 10.2 WSW 11 13 6 7 1011.9 1010.8 0.0
04/08:30pm 23.5 19.2 -1.4 19 11.2 WSW 11 15 6 8 1011.5 1010.4 0.0
04/08:00pm 25.4 20.3 -2.2 16 12.4 WSW 15 20 8 11 1011.2 1010.1 0.0
04/07:30pm 27.3 21.4 -2.5 14 13.5 WSW 19 26 10 14 1010.9 1009.9 0.0
04/07:00pm 28.9 22.4 -2.3 13 14.4 W 22 33 12 18 1010.7 1009.7 0.0
04/06:30pm 29.8 23.7 -2.6 12 15.0 WSW 20 32 11 17 1010.6 1009.6 0.0
04/06:00pm 30.4 24.3 -2.2 12 15.2 WSW 20 30 11 16 1010.6 1009.6 0.0
04/05:30pm 31.0 24.9 0.4 14 15.0 SW 22 35 12 19 1010.5 1009.5 0.0
04/05:00pm 30.7 24.3 1.1 15 14.7 SW 24 37 13 20 1010.5 1009.5 0.0
04/04:30pm 31.3 24.7 -0.4 13 15.4 WSW 24 37 13 20 1010.7 1009.7 0.0
04/04:00pm 30.6 24.8 0.1 14 14.9 WSW 20 35 11 19 1011.2 1010.1 0.0
04/03:30pm 31.2 26.4 2.4 16 14.6 SW 17 28 9 15 1011.7 1010.6 0.0

Other Formats:

Comma delimited format used in spreadsheet applications
http://www.bom.gov.au/fwo/IDN60801/IDN60801.95722.axf

JavaScript Object Notation format (JSON) in row-major order
http://www.bom.gov.au/fwo/IDN60801/IDN60801.95722.json